Time;durP1;ratioP1;P1;durP2;ratioP2;P2;SDS_P1;SDS_P2;PMS_P1;PMS_P2;Temp;Humidity;BMP_temperature;BMP_pressure;BME280_temperature;BME280_humidity;BME280_pressure;Samples;Min_cycle;Max_cycle;Signal;HPM_P1;HPM_P2
2021/09/24 00:00:12;;;;;;;;;;;14.20;99.90;;;;;;1868692;75;20473;-70
2021/09/24 00:02:39;;;;;;;;;;;14.20;99.90;;;;;;1872253;75;20168;-70
2021/09/24 00:05:06;;;;;;;;;;;14.10;99.90;;;;;;1871111;75;20226;-70
2021/09/24 00:07:33;;;;;;;;;;;14.20;99.90;;;;;;1872527;75;20453;-70
2021/09/24 00:09:59;;;;;;;;;;;14.20;99.90;;;;;;1871804;75;20156;-70
2021/09/24 00:12:26;;;;;;;;;;;14.20;99.90;;;;;;1870318;75;20160;-70
2021/09/24 00:14:53;;;;;;;;;;;14.20;99.90;;;;;;1868565;75;20191;-70
2021/09/24 00:17:20;;;;;;;;;;;14.00;99.90;;;;;;1872728;75;20280;-70
2021/09/24 00:19:47;;;;;;;;;;;14.10;99.90;;;;;;1871827;75;20165;-70
2021/09/24 00:22:13;;;;;;;;;;;14.10;99.90;;;;;;1869950;75;20121;-70
2021/09/24 00:24:40;;;;;;;;;;;14.10;99.90;;;;;;1870906;75;20109;-70
2021/09/24 00:27:07;;;;;;;;;;;14.20;99.90;;;;;;1871176;75;20219;-70
2021/09/24 00:29:34;;;;;;;;;;;14.10;99.90;;;;;;1868763;75;20124;-70
2021/09/24 00:32:01;;;;;;;;;;;14.00;99.90;;;;;;1872151;75;20219;-70
2021/09/24 00:34:27;;;;;;;;;;;13.90;99.90;;;;;;1871461;75;20222;-70
2021/09/24 00:36:54;;;;;;;;;;;13.90;99.90;;;;;;1874574;75;20253;-69
2021/09/24 00:39:21;;;;;;;;;;;14.00;99.90;;;;;;1871968;75;20206;-70
2021/09/24 00:41:48;;;;;;;;;;;13.90;99.90;;;;;;1871692;75;20132;-69
2021/09/24 00:44:15;;;;;;;;;;;13.90;99.90;;;;;;1871858;75;20175;-69
2021/09/24 00:46:41;;;;;;;;;;;13.90;99.90;;;;;;1872402;75;20171;-69
2021/09/24 00:49:10;;;;;;;;;;;13.90;99.90;;;;;;1871354;75;20156;-70
2021/09/24 00:51:37;;;;;;;;;;;13.90;99.90;;;;;;1872437;75;20129;-70
2021/09/24 00:54:04;;;;;;;;;;;13.90;99.90;;;;;;1872240;75;20290;-70
2021/09/24 00:56:31;;;;;;;;;;;13.90;99.90;;;;;;1873690;75;20295;-70
2021/09/24 00:58:58;;;;;;;;;;;13.80;99.90;;;;;;1877435;75;20183;-70
2021/09/24 01:01:25;;;;;;;;;;;13.80;99.90;;;;;;1875191;75;20179;-71
2021/09/24 01:03:52;;;;;;;;;;;13.80;99.90;;;;;;1868691;75;20254;-71
2021/09/24 01:06:19;;;;;;;;;;;13.70;99.90;;;;;;1871562;75;20124;-70
2021/09/24 01:08:46;;;;;;;;;;;13.70;99.90;;;;;;1871725;75;20234;-71
2021/09/24 01:11:13;;;;;;;;;;;13.70;99.90;;;;;;1870966;75;20211;-70
2021/09/24 01:13:40;;;;;;;;;;;13.70;99.90;;;;;;1872859;75;20206;-70
2021/09/24 01:16:07;;;;;;;;;;;13.60;99.90;;;;;;1870814;75;20118;-70
2021/09/24 01:18:34;;;;;;;;;;;13.60;99.90;;;;;;1873353;75;20285;-70
2021/09/24 01:21:01;;;;;;;;;;;13.60;99.90;;;;;;1871908;75;20168;-70
2021/09/24 01:23:28;;;;;;;;;;;13.60;99.90;;;;;;1872190;75;20188;-70
2021/09/24 01:25:55;;;;;;;;;;;13.60;99.90;;;;;;1869622;75;20184;-70
2021/09/24 01:28:21;;;;;;;;;;;13.60;99.90;;;;;;1869170;75;20132;-70
2021/09/24 01:30:48;;;;;;;;;;;13.60;99.90;;;;;;1872678;75;20203;-70
2021/09/24 01:33:16;;;;;;;;;;;13.50;99.90;;;;;;1870795;75;20172;-70
2021/09/24 01:35:43;;;;;;;;;;;13.60;99.90;;;;;;1872010;75;20183;-70
2021/09/24 01:38:10;;;;;;;;;;;13.60;99.90;;;;;;1872502;75;20130;-70
2021/09/24 01:40:36;;;;;;;;;;;13.60;99.90;;;;;;1871869;75;20199;-70
2021/09/24 01:43:03;;;;;;;;;;;13.50;99.90;;;;;;1872609;75;20198;-70
2021/09/24 01:45:30;;;;;;;;;;;13.60;99.90;;;;;;1870468;75;20125;-70
2021/09/24 01:47:57;;;;;;;;;;;13.60;99.90;;;;;;1871772;75;20202;-70
2021/09/24 01:50:24;;;;;;;;;;;13.50;99.90;;;;;;1871802;75;20223;-69
2021/09/24 01:52:50;;;;;;;;;;;13.50;99.90;;;;;;1874807;75;20258;-69
2021/09/24 01:55:17;;;;;;;;;;;13.50;99.90;;;;;;1871289;75;20203;-69
2021/09/24 01:57:44;;;;;;;;;;;13.50;99.90;;;;;;1872403;75;20175;-69
2021/09/24 02:00:11;;;;;;;;;;;13.40;99.90;;;;;;1871510;75;20230;-69
2021/09/24 02:02:38;;;;;;;;;;;13.50;99.90;;;;;;1872337;75;20120;-69
2021/09/24 02:05:06;;;;;;;;;;;13.50;99.90;;;;;;1871411;75;20468;-69
2021/09/24 02:07:33;;;;;;;;;;;13.50;99.90;;;;;;1872200;75;20917;-69
2021/09/24 02:10:00;;;;;;;;;;;13.40;99.90;;;;;;1870874;75;20164;-68
2021/09/24 02:12:27;;;;;;;;;;;13.40;99.90;;;;;;1869427;75;20159;-69
2021/09/24 02:14:53;;;;;;;;;;;13.40;99.90;;;;;;1868697;75;20183;-69
2021/09/24 02:17:20;;;;;;;;;;;13.50;99.90;;;;;;1872547;75;20199;-68
2021/09/24 02:19:47;;;;;;;;;;;13.40;99.90;;;;;;1871565;75;20228;-70
2021/09/24 02:22:14;;;;;;;;;;;13.40;99.90;;;;;;1869654;75;20226;-68
2021/09/24 02:24:41;;;;;;;;;;;13.30;99.90;;;;;;1870545;75;20136;-69
2021/09/24 02:27:07;;;;;;;;;;;13.30;99.90;;;;;;1871663;75;20172;-68
2021/09/24 02:29:34;;;;;;;;;;;13.40;99.90;;;;;;1871494;75;20168;-68
2021/09/24 02:32:01;;;;;;;;;;;13.40;99.90;;;;;;1871397;75;20125;-68
2021/09/24 02:34:28;;;;;;;;;;;13.50;99.90;;;;;;1871993;75;20218;-68
2021/09/24 02:36:55;;;;;;;;;;;13.50;99.90;;;;;;1868729;75;20180;-68
2021/09/24 02:39:21;;;;;;;;;;;13.40;99.90;;;;;;1872307;75;20223;-68
2021/09/24 02:41:48;;;;;;;;;;;13.50;99.90;;;;;;1870702;75;20176;-68
2021/09/24 02:44:15;;;;;;;;;;;13.50;99.90;;;;;;1869563;75;20183;-68
2021/09/24 02:46:42;;;;;;;;;;;13.40;99.90;;;;;;1871770;75;20172;-68
2021/09/24 02:49:09;;;;;;;;;;;13.50;99.90;;;;;;1871124;75;20676;-68
2021/09/24 02:51:36;;;;;;;;;;;13.50;99.90;;;;;;1870362;75;20219;-68
2021/09/24 02:54:03;;;;;;;;;;;13.50;99.90;;;;;;1872359;75;20124;-69
2021/09/24 02:56:30;;;;;;;;;;;13.60;99.90;;;;;;1871940;75;20145;-68
2021/09/24 02:58:57;;;;;;;;;;;13.50;99.90;;;;;;1871440;75;20159;-68
2021/09/24 03:01:24;;;;;;;;;;;13.50;99.90;;;;;;1872543;75;20365;-68
2021/09/24 03:03:51;;;;;;;;;;;13.50;99.90;;;;;;1872077;75;20172;-68
2021/09/24 03:06:17;;;;;;;;;;;13.60;99.90;;;;;;1872335;75;20109;-68
2021/09/24 03:08:44;;;;;;;;;;;13.60;99.90;;;;;;1867363;75;20170;-68
2021/09/24 03:11:11;;;;;;;;;;;13.60;99.90;;;;;;1871519;75;20172;-68
2021/09/24 03:13:38;;;;;;;;;;;13.60;99.90;;;;;;1871752;75;20250;-68
2021/09/24 03:16:05;;;;;;;;;;;13.60;99.90;;;;;;1875236;75;20225;-68
2021/09/24 03:18:31;;;;;;;;;;;13.60;99.90;;;;;;1871360;75;20264;-68
2021/09/24 03:20:58;;;;;;;;;;;13.60;99.90;;;;;;1871935;75;20128;-68
2021/09/24 03:23:25;;;;;;;;;;;13.60;99.90;;;;;;1872104;75;20434;-68
2021/09/24 03:25:52;;;;;;;;;;;13.60;99.90;;;;;;1871297;75;20159;-68
2021/09/24 03:28:19;;;;;;;;;;;13.60;99.90;;;;;;1872443;75;20241;-68
2021/09/24 03:30:46;;;;;;;;;;;13.60;99.90;;;;;;1871273;75;20484;-68
2021/09/24 03:33:12;;;;;;;;;;;13.70;99.90;;;;;;1872484;75;20223;-68
2021/09/24 03:35:39;;;;;;;;;;;13.60;99.90;;;;;;1871484;75;20180;-68
2021/09/24 03:38:06;;;;;;;;;;;13.60;99.90;;;;;;1872259;75;20121;-69
2021/09/24 03:40:33;;;;;;;;;;;13.60;99.90;;;;;;1871594;75;20477;-69
2021/09/24 03:43:00;;;;;;;;;;;13.60;99.90;;;;;;1871615;75;20184;-69
2021/09/24 03:45:28;;;;;;;;;;;13.50;99.90;;;;;;1871082;75;20155;-69
2021/09/24 03:47:55;;;;;;;;;;;13.60;99.90;;;;;;1873188;75;20160;-69
2021/09/24 03:50:24;;;;;;;;;;;13.60;99.90;;;;;;1871287;75;20192;-69
2021/09/24 03:52:52;;;;;;;;;;;13.60;99.90;;;;;;1872666;75;20267;-69
2021/09/24 03:55:18;;;;;;;;;;;13.60;99.90;;;;;;1872023;75;20152;-69
2021/09/24 03:57:46;;;;;;;;;;;13.70;99.90;;;;;;1872236;75;20215;-69
2021/09/24 04:00:13;;;;;;;;;;;13.70;99.90;;;;;;1870566;75;20129;-69
2021/09/24 04:02:40;;;;;;;;;;;13.70;99.90;;;;;;1872429;75;20451;-69
2021/09/24 04:05:07;;;;;;;;;;;13.70;99.90;;;;;;1871913;75;20520;-69
2021/09/24 04:07:34;;;;;;;;;;;13.70;99.90;;;;;;1871785;75;20184;-69
2021/09/24 04:10:00;;;;;;;;;;;13.70;99.90;;;;;;1872137;75;20172;-69
2021/09/24 04:12:27;;;;;;;;;;;13.80;99.90;;;;;;1871027;75;20175;-69
2021/09/24 04:14:54;;;;;;;;;;;13.80;99.90;;;;;;1872603;75;20219;-69
2021/09/24 04:17:21;;;;;;;;;;;13.80;99.90;;;;;;1871985;75;20183;-69
2021/09/24 04:19:48;;;;;;;;;;;13.80;99.90;;;;;;1872142;75;20504;-70
2021/09/24 04:22:14;;;;;;;;;;;13.80;99.90;;;;;;1872365;75;20184;-69
2021/09/24 04:24:41;;;;;;;;;;;13.80;99.90;;;;;;1871269;75;20159;-69
2021/09/24 04:27:08;;;;;;;;;;;13.80;99.90;;;;;;1871317;75;20245;-69
2021/09/24 04:29:35;;;;;;;;;;;13.80;99.90;;;;;;1870709;75;20219;-69
2021/09/24 04:32:02;;;;;;;;;;;13.80;99.90;;;;;;1870361;75;20148;-69
2021/09/24 04:34:28;;;;;;;;;;;13.90;99.90;;;;;;1871366;75;20191;-69
2021/09/24 04:36:55;;;;;;;;;;;13.90;99.90;;;;;;1870012;75;20172;-69
2021/09/24 04:39:22;;;;;;;;;;;13.90;99.90;;;;;;1872257;75;20223;-69
2021/09/24 04:41:49;;;;;;;;;;;14.00;99.90;;;;;;1870634;75;20216;-69
2021/09/24 04:44:16;;;;;;;;;;;13.90;99.90;;;;;;1872293;75;20544;-69
2021/09/24 04:46:46;;;;;;;;;;;14.00;99.90;;;;;;1871824;75;20318;-69
2021/09/24 04:49:11;;;;;;;;;;;14.00;99.90;;;;;;1871067;75;20184;-69
2021/09/24 04:51:38;;;;;;;;;;;14.00;99.90;;;;;;1871101;75;20237;-69
2021/09/24 04:54:04;;;;;;;;;;;14.00;99.90;;;;;;1872645;75;20207;-69
2021/09/24 04:56:31;;;;;;;;;;;14.10;99.90;;;;;;1871462;75;20191;-69
2021/09/24 04:58:58;;;;;;;;;;;14.00;99.90;;;;;;1872076;75;20255;-69
2021/09/24 05:01:25;;;;;;;;;;;14.00;99.90;;;;;;1874948;75;20322;-69
2021/09/24 05:03:52;;;;;;;;;;;14.10;99.90;;;;;;1872431;75;20295;-69
2021/09/24 05:06:18;;;;;;;;;;;14.10;99.90;;;;;;1873286;75;20397;-69
2021/09/24 05:08:45;;;;;;;;;;;14.10;99.90;;;;;;1872713;75;20195;-69
2021/09/24 05:11:12;;;;;;;;;;;14.00;99.90;;;;;;1870280;75;20200;-69
2021/09/24 05:13:39;;;;;;;;;;;14.10;99.90;;;;;;1871668;75;20391;-69
2021/09/24 05:16:06;;;;;;;;;;;14.10;99.90;;;;;;1868702;75;20203;-69
2021/09/24 05:18:33;;;;;;;;;;;14.10;99.90;;;;;;1872262;75;20241;-69
2021/09/24 05:21:00;;;;;;;;;;;14.20;99.90;;;;;;1871200;75;20187;-69
2021/09/24 05:23:27;;;;;;;;;;;14.20;99.90;;;;;;1870545;75;20132;-69
2021/09/24 05:25:53;;;;;;;;;;;14.20;99.90;;;;;;1870055;75;20259;-68
2021/09/24 05:28:20;;;;;;;;;;;14.20;99.90;;;;;;1872013;75;20202;-68
2021/09/24 05:30:47;;;;;;;;;;;14.20;99.90;;;;;;1868740;75;20117;-67
2021/09/24 05:33:14;;;;;;;;;;;14.30;99.90;;;;;;1872375;75;20207;-68
2021/09/24 05:35:41;;;;;;;;;;;14.30;99.90;;;;;;1870362;75;20117;-68
2021/09/24 05:38:07;;;;;;;;;;;14.20;99.90;;;;;;1871331;75;20199;-68
2021/09/24 05:40:34;;;;;;;;;;;14.30;99.90;;;;;;1871366;75;20188;-68
2021/09/24 05:43:01;;;;;;;;;;;14.30;99.90;;;;;;1870027;75;20129;-68
2021/09/24 05:45:28;;;;;;;;;;;14.30;99.90;;;;;;1869800;75;20238;-68
2021/09/24 05:47:55;;;;;;;;;;;14.30;99.90;;;;;;1871121;75;20175;-68
2021/09/24 05:50:21;;;;;;;;;;;14.40;99.90;;;;;;1867266;75;20222;-68
2021/09/24 05:52:50;;;;;;;;;;;14.30;99.90;;;;;;1871325;75;20279;-68
2021/09/24 05:55:18;;;;;;;;;;;14.40;99.90;;;;;;1888916;74;20177;-69
2021/09/24 05:57:45;;;;;;;;;;;14.40;99.90;;;;;;1886300;75;20209;-68
2021/09/24 06:00:15;;;;;;;;;;;14.40;99.90;;;;;;1945398;72;20172;-69
2021/09/24 06:02:42;;;;;;;;;;;14.40;99.90;;;;;;1945297;72;20116;-68
2021/09/24 06:05:09;;;;;;;;;;;14.40;99.90;;;;;;1945306;72;20160;-67
2021/09/24 06:07:36;;;;;;;;;;;14.40;99.90;;;;;;1948231;72;20174;-67
2021/09/24 06:10:04;;;;;;;;;;;14.30;99.90;;;;;;1946455;72;20179;-68
2021/09/24 06:12:31;;;;;;;;;;;14.40;99.90;;;;;;1945342;72;20160;-67
2021/09/24 06:14:58;;;;;;;;;;;14.40;99.90;;;;;;1942212;72;20422;-68
2021/09/24 06:17:25;;;;;;;;;;;14.40;99.90;;;;;;1947969;72;20210;-68
2021/09/24 06:19:51;;;;;;;;;;;14.50;99.90;;;;;;1945874;72;20501;-68
2021/09/24 06:22:18;;;;;;;;;;;14.50;99.90;;;;;;1941342;72;20124;-69
2021/09/24 06:24:46;;;;;;;;;;;14.50;99.90;;;;;;1940499;72;20472;-68
2021/09/24 06:27:17;;;;;;;;;;;14.50;99.90;;;;;;1946878;72;20939;-69
2021/09/24 06:29:44;;;;;;;;;;;14.60;99.90;;;;;;1946516;73;20211;-68
2021/09/24 06:32:11;;;;;;;;;;;14.50;99.90;;;;;;1945116;72;20167;-68
2021/09/24 06:34:39;;;;;;;;;;;14.60;99.90;;;;;;1942292;72;20139;-68
2021/09/24 06:37:06;;;;;;;;;;;14.60;99.90;;;;;;1938117;72;20305;-68
2021/09/24 06:39:33;;;;;;;;;;;14.50;99.90;;;;;;1938378;72;20269;-68
2021/09/24 06:41:59;;;;;;;;;;;14.60;99.90;;;;;;1942819;72;20160;-68
2021/09/24 06:44:26;;;;;;;;;;;14.60;99.90;;;;;;1940916;72;20227;-68
2021/09/24 06:46:53;;;;;;;;;;;14.60;99.90;;;;;;1935330;72;20829;-68
2021/09/24 06:49:22;;;;;;;;;;;14.70;99.90;;;;;;1941146;72;20186;-68
2021/09/24 06:51:49;;;;;;;;;;;14.70;99.90;;;;;;1933285;72;20667;-68
2021/09/24 06:54:16;;;;;;;;;;;14.70;99.90;;;;;;1934790;72;20421;-68
2021/09/24 06:56:43;;;;;;;;;;;14.70;99.90;;;;;;1933025;72;20170;-70
2021/09/24 06:59:10;;;;;;;;;;;14.80;99.90;;;;;;1947462;73;20199;-68
2021/09/24 07:01:37;;;;;;;;;;;14.80;99.90;;;;;;1940358;72;20126;-68
2021/09/24 07:04:04;;;;;;;;;;;14.90;99.90;;;;;;1936317;72;20221;-67
2021/09/24 07:06:31;;;;;;;;;;;14.90;99.90;;;;;;1942790;72;20403;-67
2021/09/24 07:08:57;;;;;;;;;;;14.90;99.90;;;;;;1933966;73;20169;-67
2021/09/24 07:11:24;;;;;;;;;;;14.90;99.90;;;;;;1945678;72;20480;-68
2021/09/24 07:13:51;;;;;;;;;;;14.90;99.90;;;;;;1937823;72;20211;-68
2021/09/24 07:16:18;;;;;;;;;;;15.00;99.90;;;;;;1941248;72;20166;-67
2021/09/24 07:18:45;;;;;;;;;;;15.00;99.90;;;;;;1944041;72;20143;-67
2021/09/24 07:21:12;;;;;;;;;;;15.10;99.90;;;;;;1935114;72;20437;-67
2021/09/24 07:23:39;;;;;;;;;;;15.10;99.90;;;;;;1934390;72;20162;-67
2021/09/24 07:26:06;;;;;;;;;;;15.20;99.90;;;;;;1937739;72;20445;-68
2021/09/24 07:28:33;;;;;;;;;;;15.20;99.90;;;;;;1932295;72;20256;-68
2021/09/24 07:31:00;;;;;;;;;;;15.20;99.90;;;;;;1936142;72;20231;-68
2021/09/24 07:33:27;;;;;;;;;;;15.30;99.90;;;;;;1932159;72;20151;-68
2021/09/24 07:35:54;;;;;;;;;;;15.30;99.90;;;;;;1936213;72;20130;-68
2021/09/24 07:38:21;;;;;;;;;;;15.30;99.90;;;;;;1932697;72;20232;-68
2021/09/24 07:40:48;;;;;;;;;;;15.30;99.90;;;;;;1936641;72;20227;-68
2021/09/24 07:43:15;;;;;;;;;;;15.40;99.90;;;;;;1943491;72;20453;-68
2021/09/24 07:45:42;;;;;;;;;;;15.40;99.90;;;;;;1936245;72;20248;-69
2021/09/24 07:48:09;;;;;;;;;;;15.40;99.90;;;;;;1944764;72;20503;-68
2021/09/24 07:50:35;;;;;;;;;;;15.40;99.90;;;;;;1943599;72;20205;-69
2021/09/24 07:53:02;;;;;;;;;;;15.50;99.90;;;;;;1940704;72;20498;-68
2021/09/24 07:55:29;;;;;;;;;;;15.50;99.90;;;;;;1944267;72;20188;-68
2021/09/24 07:57:56;;;;;;;;;;;15.60;99.90;;;;;;1946983;72;20425;-68
2021/09/24 08:00:24;;;;;;;;;;;15.60;99.90;;;;;;1946886;72;20183;-68
2021/09/24 08:02:51;;;;;;;;;;;15.60;99.90;;;;;;1938582;72;20248;-68
2021/09/24 08:05:18;;;;;;;;;;;15.60;99.90;;;;;;1941326;72;20123;-69
2021/09/24 08:07:45;;;;;;;;;;;15.70;99.90;;;;;;1938977;72;20215;-68
2021/09/24 08:10:12;;;;;;;;;;;15.70;99.90;;;;;;1937506;72;20234;-68
2021/09/24 08:12:39;;;;;;;;;;;15.80;99.90;;;;;;1939611;72;20115;-68
2021/09/24 08:15:07;;;;;;;;;;;15.80;99.90;;;;;;1939561;72;20248;-69
2021/09/24 08:17:34;;;;;;;;;;;15.80;99.90;;;;;;1945250;72;20183;-68
2021/09/24 08:20:00;;;;;;;;;;;15.90;99.90;;;;;;1938759;72;20171;-68
2021/09/24 08:22:27;;;;;;;;;;;15.90;99.90;;;;;;1936722;72;20130;-68
2021/09/24 08:24:54;;;;;;;;;;;15.80;99.90;;;;;;1945024;72;20218;-68
2021/09/24 08:27:21;;;;;;;;;;;15.90;99.90;;;;;;1945334;74;20175;-68
2021/09/24 08:29:47;;;;;;;;;;;15.90;99.90;;;;;;1944497;72;20183;-68
2021/09/24 08:32:14;;;;;;;;;;;15.90;99.90;;;;;;1946058;73;20232;-69
2021/09/24 08:34:41;;;;;;;;;;;15.90;99.90;;;;;;1945738;72;20161;-68
2021/09/24 08:37:08;;;;;;;;;;;16.00;99.90;;;;;;1945894;72;20155;-68
2021/09/24 08:39:35;;;;;;;;;;;16.00;99.90;;;;;;1945775;72;20452;-69
2021/09/24 08:42:01;;;;;;;;;;;16.00;99.90;;;;;;1946029;73;20150;-68
2021/09/24 08:44:28;;;;;;;;;;;16.00;99.90;;;;;;1948372;71;20493;-68
2021/09/24 08:46:55;;;;;;;;;;;16.00;99.90;;;;;;1945625;72;20116;-69
2021/09/24 08:49:22;;;;;;;;;;;16.10;99.90;;;;;;1943719;72;20166;-68
2021/09/24 08:51:49;;;;;;;;;;;16.10;99.90;;;;;;1944988;72;20465;-69
2021/09/24 08:54:16;;;;;;;;;;;16.10;99.90;;;;;;1944184;72;20120;-68
2021/09/24 08:56:43;;;;;;;;;;;16.10;99.90;;;;;;1943554;72;20437;-68
2021/09/24 08:59:09;;;;;;;;;;;16.10;99.90;;;;;;1946703;73;20154;-68
2021/09/24 09:01:36;;;;;;;;;;;16.10;99.90;;;;;;1945355;72;20753;-68
2021/09/24 09:04:03;;;;;;;;;;;16.10;99.90;;;;;;1940428;72;20166;-68
2021/09/24 09:06:30;;;;;;;;;;;16.20;99.90;;;;;;1948093;72;20260;-68
2021/09/24 09:09:04;;;;;;;;;;;16.20;99.90;;;;;;1946856;73;20505;-68
2021/09/24 09:11:31;;;;;;;;;;;16.20;99.90;;;;;;1947045;72;20187;-68
2021/09/24 09:13:59;;;;;;;;;;;16.10;99.90;;;;;;1947691;72;20104;-68
2021/09/24 09:16:34;;;;;;;;;;;16.10;99.90;;;;;;1943654;72;20119;-68
2021/09/24 09:19:13;;;;;;;;;;;16.20;99.90;;;;;;1936709;72;20421;-68
2021/09/24 09:21:42;;;;;;;;;;;16.20;99.90;;;;;;1946813;72;20120;-68
2021/09/24 09:24:19;;;;;;;;;;;16.20;99.90;;;;;;1947065;72;20205;-68
2021/09/24 09:26:46;;;;;;;;;;;16.20;99.90;;;;;;1944085;73;20205;-68
2021/09/24 09:29:14;;;;;;;;;;;16.20;99.90;;;;;;1945777;72;20182;-68
2021/09/24 09:31:41;;;;;;;;;;;16.20;99.90;;;;;;1946601;72;20163;-68
2021/09/24 09:34:10;;;;;;;;;;;16.20;99.90;;;;;;1944583;72;20152;-68
2021/09/24 09:36:38;;;;;;;;;;;16.30;99.90;;;;;;1938172;73;20279;-68
2021/09/24 09:39:13;;;;;;;;;;;16.40;99.90;;;;;;1939157;72;20163;-68
2021/09/24 09:41:50;;;;;;;;;;;16.40;99.90;;;;;;1932572;72;20220;-68
2021/09/24 09:44:25;;;;;;;;;;;16.50;99.90;;;;;;1939406;72;20521;-69
2021/09/24 09:46:52;;;;;;;;;;;16.60;99.90;;;;;;1871421;74;20176;-69
2021/09/24 09:49:19;;;;;;;;;;;16.60;99.90;;;;;;1885925;75;20147;-69
2021/09/24 09:51:48;;;;;;;;;;;16.70;99.90;;;;;;1942278;72;20159;-69
2021/09/24 09:54:16;;;;;;;;;;;16.80;99.90;;;;;;1943625;72;20163;-69
2021/09/24 09:56:49;;;;;;;;;;;16.90;99.90;;;;;;1934926;74;20330;-69
2021/09/24 09:59:31;;;;;;;;;;;17.00;99.90;;;;;;1946727;72;20231;-69
2021/09/24 10:02:16;;;;;;;;;;;17.10;99.90;;;;;;1945410;74;20181;-69
2021/09/24 10:04:47;;;;;;;;;;;17.10;99.90;;;;;;1945644;72;20434;-69
2021/09/24 10:07:22;;;;;;;;;;;17.10;99.90;;;;;;1940386;72;20159;-69
2021/09/24 10:09:50;;;;;;;;;;;17.10;99.90;;;;;;1943273;72;20171;-68
2021/09/24 10:12:21;;;;;;;;;;;17.10;99.90;;;;;;1939616;72;20461;-68
2021/09/24 10:14:48;;;;;;;;;;;17.00;99.90;;;;;;1936643;72;20246;-68
2021/09/24 10:17:16;;;;;;;;;;;17.10;99.90;;;;;;1938946;73;20142;-68
2021/09/24 10:19:43;;;;;;;;;;;17.10;99.90;;;;;;1938905;72;20198;-68
2021/09/24 10:22:11;;;;;;;;;;;17.10;99.90;;;;;;1945686;72;20256;-68
2021/09/24 10:24:39;;;;;;;;;;;17.10;99.90;;;;;;1946100;72;20472;-68
2021/09/24 10:27:07;;;;;;;;;;;17.10;99.90;;;;;;1946110;72;20370;-68
2021/09/24 10:29:35;;;;;;;;;;;17.10;99.90;;;;;;1944842;72;20261;-68
2021/09/24 10:32:15;;;;;;;;;;;17.10;99.90;;;;;;1946863;74;20120;-68
2021/09/24 10:34:53;;;;;;;;;;;17.20;99.90;;;;;;1944920;72;20105;-68
2021/09/24 10:37:20;;;;;;;;;;;17.30;99.90;;;;;;1940170;72;20104;-68
2021/09/24 10:39:48;;;;;;;;;;;17.30;99.90;;;;;;1945632;72;20202;-68
2021/09/24 10:42:19;;;;;;;;;;;17.50;99.90;;;;;;1943904;72;20819;-68
2021/09/24 10:44:59;;;;;;;;;;;17.50;99.90;;;;;;1941235;72;20383;-68
2021/09/24 10:47:46;;;;;;;;;;;17.60;99.90;;;;;;1944128;72;20216;-70
2021/09/24 10:50:33;;;;;;;;;;;17.60;99.90;;;;;;1943965;72;20160;-69
2021/09/24 10:53:19;;;;;;;;;;;17.60;99.90;;;;;;1943478;72;20148;-68
2021/09/24 10:55:50;;;;;;;;;;;17.60;99.90;;;;;;1943877;72;20180;-69
2021/09/24 10:58:18;;;;;;;;;;;17.60;99.90;;;;;;1946542;72;20147;-69
2021/09/24 11:00:49;;;;;;;;;;;17.60;99.90;;;;;;1872382;75;20215;-68
2021/09/24 11:03:18;;;;;;;;;;;17.60;99.90;;;;;;1850392;76;20243;-69
2021/09/24 11:06:01;;;;;;;;;;;17.60;99.90;;;;;;1946373;74;20199;-69
2021/09/24 11:08:36;;;;;;;;;;;17.60;99.90;;;;;;1946522;72;20167;-68
2021/09/24 11:11:10;;;;;;;;;;;17.60;99.90;;;;;;1879088;75;20409;-70
2021/09/24 11:13:41;;;;;;;;;;;17.60;99.90;;;;;;1884690;76;20106;-69
2021/09/24 11:16:09;;;;;;;;;;;17.50;99.90;;;;;;1899455;74;20156;-70
2021/09/24 11:18:48;;;;;;;;;;;17.50;99.90;;;;;;1943649;72;20160;-68
2021/09/24 11:21:17;;;;;;;;;;;17.60;99.90;;;;;;1944817;72;20228;-69
2021/09/24 11:23:44;;;;;;;;;;;17.50;99.90;;;;;;1945782;72;20477;-69
2021/09/24 11:26:22;;;;;;;;;;;17.50;99.90;;;;;;1946673;74;20166;-69
2021/09/24 11:28:50;;;;;;;;;;;17.50;99.90;;;;;;1940592;72;20147;-69
2021/09/24 11:31:17;;;;;;;;;;;17.50;99.90;;;;;;1941960;72;20151;-69
2021/09/24 11:33:46;;;;;;;;;;;17.40;99.90;;;;;;1945576;72;20127;-69
2021/09/24 11:36:13;;;;;;;;;;;17.50;99.90;;;;;;1945209;72;20159;-69
2021/09/24 11:38:40;;;;;;;;;;;17.50;99.90;;;;;;1944637;73;20213;-69
2021/09/24 11:41:07;;;;;;;;;;;17.50;99.90;;;;;;1946135;72;20464;-70
2021/09/24 11:43:36;;;;;;;;;;;17.50;99.90;;;;;;1946745;72;20175;-70
2021/09/24 11:46:14;;;;;;;;;;;17.50;99.90;;;;;;1950202;72;20175;-70
2021/09/24 11:48:40;;;;;;;;;;;17.50;99.90;;;;;;1945707;72;20468;-70
2021/09/24 11:51:11;;;;;;;;;;;17.50;99.90;;;;;;1949640;73;20154;-70
2021/09/24 11:53:45;;;;;;;;;;;17.50;99.90;;;;;;1942157;72;20150;-70
2021/09/24 11:56:11;;;;;;;;;;;17.50;99.90;;;;;;1940206;72;20128;-70
2021/09/24 11:58:38;;;;;;;;;;;17.50;99.90;;;;;;1947578;72;20276;-70
2021/09/24 12:01:05;;;;;;;;;;;17.40;99.90;;;;;;1945315;72;20183;-69
2021/09/24 12:03:33;;;;;;;;;;;17.40;99.90;;;;;;1943271;71;20109;-68
2021/09/24 12:06:12;;;;;;;;;;;17.40;99.90;;;;;;1950176;73;20160;-69
2021/09/24 12:08:42;;;;;;;;;;;17.40;99.90;;;;;;1935718;72;20190;-69
2021/09/24 12:11:12;;;;;;;;;;;17.40;99.90;;;;;;1885943;74;20256;-68
2021/09/24 12:13:41;;;;;;;;;;;17.40;99.90;;;;;;1938374;72;20169;-69
2021/09/24 12:16:08;;;;;;;;;;;17.40;99.90;;;;;;1943987;72;20166;-68
2021/09/24 12:18:45;;;;;;;;;;;17.40;99.90;;;;;;1946579;72;20402;-68
2021/09/24 12:21:13;;;;;;;;;;;17.40;99.90;;;;;;1943279;73;20119;-69
2021/09/24 12:23:40;;;;;;;;;;;17.40;99.90;;;;;;1937503;72;20195;-68
2021/09/24 12:26:08;;;;;;;;;;;17.40;99.90;;;;;;1940834;72;20304;-68
2021/09/24 12:28:36;;;;;;;;;;;17.40;99.90;;;;;;1947327;72;20272;-68
2021/09/24 12:31:06;;;;;;;;;;;17.40;99.90;;;;;;1943690;72;20166;-68
2021/09/24 12:33:33;;;;;;;;;;;17.40;99.90;;;;;;1935428;72;20524;-68
2021/09/24 12:36:01;;;;;;;;;;;17.40;99.90;;;;;;1927199;72;20178;-68
2021/09/24 12:38:29;;;;;;;;;;;17.40;99.90;;;;;;1928610;72;20174;-68
2021/09/24 12:40:58;;;;;;;;;;;17.40;99.90;;;;;;1934244;72;20178;-68
2021/09/24 12:43:35;;;;;;;;;;;17.40;99.90;;;;;;1854980;75;20119;-67
2021/09/24 12:46:01;;;;;;;;;;;17.40;99.90;;;;;;1886565;76;20245;-68
2021/09/24 12:48:42;;;;;;;;;;;17.40;99.90;;;;;;1887739;75;20491;-68
2021/09/24 12:51:10;;;;;;;;;;;17.40;99.90;;;;;;1938755;72;20184;-68
2021/09/24 12:53:38;;;;;;;;;;;17.40;99.90;;;;;;1936536;72;20199;-68
2021/09/24 12:56:05;;;;;;;;;;;17.50;99.90;;;;;;1945718;72;20205;-67
2021/09/24 12:58:36;;;;;;;;;;;17.50;99.90;;;;;;1938597;72;20235;-67
2021/09/24 13:01:04;;;;;;;;;;;17.50;99.90;;;;;;1871026;75;20127;-67
2021/09/24 13:03:32;;;;;;;;;;;17.50;99.90;;;;;;1859210;75;20179;-67
2021/09/24 13:06:00;;;;;;;;;;;17.50;99.90;;;;;;1842700;76;20127;-70
2021/09/24 13:08:28;;;;;;;;;;;17.50;99.90;;;;;;1933033;72;20265;-70
2021/09/24 13:10:55;;;;;;;;;;;17.50;99.90;;;;;;1932708;72;20173;-70
2021/09/24 13:13:24;;;;;;;;;;;17.50;99.90;;;;;;1932517;72;20207;-67
2021/09/24 13:15:51;;;;;;;;;;;17.50;99.90;;;;;;1940882;72;20429;-67
2021/09/24 13:18:18;;;;;;;;;;;17.60;99.90;;;;;;1944702;72;20132;-67
2021/09/24 13:20:45;;;;;;;;;;;17.60;99.90;;;;;;1931088;72;20218;-67
2021/09/24 13:23:12;;;;;;;;;;;17.60;99.90;;;;;;1938023;72;20124;-67
2021/09/24 13:25:39;;;;;;;;;;;17.60;99.90;;;;;;1934632;72;20159;-67
2021/09/24 13:28:06;;;;;;;;;;;17.60;99.90;;;;;;1930824;72;21244;-69
2021/09/24 13:30:34;;;;;;;;;;;17.70;99.90;;;;;;1937996;72;20194;-67
2021/09/24 13:33:02;;;;;;;;;;;17.70;99.90;;;;;;1934684;72;20167;-68
2021/09/24 13:35:29;;;;;;;;;;;17.70;99.90;;;;;;1944083;72;20244;-68
2021/09/24 13:37:56;;;;;;;;;;;17.70;99.90;;;;;;1932993;72;20175;-68
2021/09/24 13:40:22;;;;;;;;;;;17.80;99.90;;;;;;1933186;72;20128;-68
2021/09/24 13:42:49;;;;;;;;;;;17.80;99.90;;;;;;1935246;72;20262;-68
2021/09/24 13:45:16;;;;;;;;;;;17.90;99.90;;;;;;1938152;72;20212;-68
2021/09/24 13:47:43;;;;;;;;;;;17.90;99.90;;;;;;1936747;72;20199;-68
2021/09/24 13:50:12;;;;;;;;;;;17.90;99.90;;;;;;1930393;72;20462;-67
2021/09/24 13:52:39;;;;;;;;;;;17.90;99.90;;;;;;1943194;72;20127;-68
2021/09/24 13:55:06;;;;;;;;;;;18.00;99.90;;;;;;1945458;72;20171;-68
2021/09/24 13:57:33;;;;;;;;;;;18.10;99.90;;;;;;1936062;72;20207;-67
2021/09/24 14:00:00;;;;;;;;;;;18.10;99.90;;;;;;1923606;72;20461;-68
2021/09/24 14:02:26;;;;;;;;;;;18.20;99.90;;;;;;1920836;72;20297;-68
2021/09/24 14:04:53;;;;;;;;;;;18.20;99.90;;;;;;1929425;72;20248;-67
2021/09/24 14:07:20;;;;;;;;;;;18.20;99.90;;;;;;1929621;72;20187;-68
2021/09/24 14:09:47;;;;;;;;;;;18.20;99.90;;;;;;1937701;72;20235;-68
2021/09/24 14:12:15;;;;;;;;;;;18.20;99.90;;;;;;1924311;72;20255;-67
2021/09/24 14:14:42;;;;;;;;;;;18.20;99.90;;;;;;1931857;72;20525;-68
2021/09/24 14:17:09;;;;;;;;;;;18.40;99.90;;;;;;1933635;72;20441;-68
2021/09/24 14:19:36;;;;;;;;;;;18.50;99.90;;;;;;1928837;72;20216;-68